sensor_id;sensor_type;location;lat;lon;timestamp;P1;durP1;ratioP1;P2;durP2;ratioP2
52618;SDS011;38513;53.234;6.568;2022-07-21T00:02:10;12.35;;;6.80;;
52618;SDS011;38513;53.234;6.568;2022-07-21T00:04:36;22.88;;;14.18;;
52618;SDS011;38513;53.234;6.568;2022-07-21T00:07:02;14.85;;;7.60;;
52618;SDS011;38513;53.234;6.568;2022-07-21T00:09:28;12.35;;;6.45;;
52618;SDS011;38513;53.234;6.568;2022-07-21T00:11:54;13.60;;;6.28;;
52618;SDS011;38513;53.234;6.568;2022-07-21T00:14:20;13.27;;;6.95;;
52618;SDS011;38513;53.234;6.568;2022-07-21T00:16:46;13.13;;;6.15;;
52618;SDS011;38513;53.234;6.568;2022-07-21T00:19:12;13.80;;;7.68;;
52618;SDS011;38513;53.234;6.568;2022-07-21T00:21:39;12.75;;;6.95;;
52618;SDS011;38513;53.234;6.568;2022-07-21T00:24:05;12.88;;;6.55;;
52618;SDS011;38513;53.234;6.568;2022-07-21T00:26:31;13.33;;;7.53;;
52618;SDS011;38513;53.234;6.568;2022-07-21T00:28:57;15.98;;;9.20;;
52618;SDS011;38513;53.234;6.568;2022-07-21T00:31:24;14.38;;;7.32;;
52618;SDS011;38513;53.234;6.568;2022-07-21T00:33:50;13.77;;;7.38;;
52618;SDS011;38513;53.234;6.568;2022-07-21T00:36:17;13.60;;;7.20;;
52618;SDS011;38513;53.234;6.568;2022-07-21T00:38:43;12.82;;;7.07;;
52618;SDS011;38513;53.234;6.568;2022-07-21T00:41:09;13.85;;;8.02;;
52618;SDS011;38513;53.234;6.568;2022-07-21T00:43:35;13.38;;;7.10;;
52618;SDS011;38513;53.234;6.568;2022-07-21T00:46:04;15.10;;;8.73;;
52618;SDS011;38513;53.234;6.568;2022-07-21T00:48:30;15.75;;;8.05;;
52618;SDS011;38513;53.234;6.568;2022-07-21T00:50:57;15.13;;;7.85;;
52618;SDS011;38513;53.234;6.568;2022-07-21T00:53:24;14.02;;;7.78;;
52618;SDS011;38513;53.234;6.568;2022-07-21T00:55:50;17.08;;;8.70;;
52618;SDS011;38513;53.234;6.568;2022-07-21T00:58:16;14.73;;;7.88;;
52618;SDS011;38513;53.234;6.568;2022-07-21T01:00:42;14.63;;;7.70;;
52618;SDS011;38513;53.234;6.568;2022-07-21T01:03:08;17.10;;;9.45;;
52618;SDS011;38513;53.234;6.568;2022-07-21T01:05:34;18.02;;;10.60;;
52618;SDS011;38513;53.234;6.568;2022-07-21T01:08:01;21.58;;;11.02;;
52618;SDS011;38513;53.234;6.568;2022-07-21T01:10:30;19.20;;;11.20;;
52618;SDS011;38513;53.234;6.568;2022-07-21T01:12:57;19.73;;;11.70;;
52618;SDS011;38513;53.234;6.568;2022-07-21T01:15:26;18.48;;;12.20;;
52618;SDS011;38513;53.234;6.568;2022-07-21T01:17:53;21.48;;;12.35;;
52618;SDS011;38513;53.234;6.568;2022-07-21T01:20:20;23.73;;;14.13;;
52618;SDS011;38513;53.234;6.568;2022-07-21T01:22:48;19.58;;;13.10;;
52618;SDS011;38513;53.234;6.568;2022-07-21T01:25:14;20.42;;;14.05;;
52618;SDS011;38513;53.234;6.568;2022-07-21T01:27:41;23.33;;;14.45;;
52618;SDS011;38513;53.234;6.568;2022-07-21T01:30:07;21.90;;;13.93;;
52618;SDS011;38513;53.234;6.568;2022-07-21T01:32:38;20.63;;;13.45;;
52618;SDS011;38513;53.234;6.568;2022-07-21T01:35:05;19.95;;;14.25;;
52618;SDS011;38513;53.234;6.568;2022-07-21T01:37:35;22.63;;;14.80;;
52618;SDS011;38513;53.234;6.568;2022-07-21T01:40:02;25.27;;;17.42;;
52618;SDS011;38513;53.234;6.568;2022-07-21T01:42:47;24.75;;;16.75;;
52618;SDS011;38513;53.234;6.568;2022-07-21T01:45:13;23.92;;;16.58;;
52618;SDS011;38513;53.234;6.568;2022-07-21T01:47:40;23.05;;;15.75;;
52618;SDS011;38513;53.234;6.568;2022-07-21T01:50:06;24.13;;;16.23;;
52618;SDS011;38513;53.234;6.568;2022-07-21T01:52:32;40.97;;;28.33;;
52618;SDS011;38513;53.234;6.568;2022-07-21T01:54:58;24.92;;;17.52;;
52618;SDS011;38513;53.234;6.568;2022-07-21T01:57:25;24.23;;;15.60;;
52618;SDS011;38513;53.234;6.568;2022-07-21T01:59:51;21.88;;;15.52;;
52618;SDS011;38513;53.234;6.568;2022-07-21T02:02:17;23.48;;;16.17;;
52618;SDS011;38513;53.234;6.568;2022-07-21T02:04:46;35.80;;;23.13;;
52618;SDS011;38513;53.234;6.568;2022-07-21T02:07:13;25.55;;;16.25;;
52618;SDS011;38513;53.234;6.568;2022-07-21T02:09:39;25.90;;;17.65;;
52618;SDS011;38513;53.234;6.568;2022-07-21T02:12:05;26.50;;;18.65;;
52618;SDS011;38513;53.234;6.568;2022-07-21T02:14:31;30.75;;;20.08;;
52618;SDS011;38513;53.234;6.568;2022-07-21T02:16:57;26.83;;;17.65;;
52618;SDS011;38513;53.234;6.568;2022-07-21T02:19:23;24.35;;;16.38;;
52618;SDS011;38513;53.234;6.568;2022-07-21T02:21:49;26.92;;;17.67;;
52618;SDS011;38513;53.234;6.568;2022-07-21T02:24:15;26.77;;;17.45;;
52618;SDS011;38513;53.234;6.568;2022-07-21T02:26:41;28.85;;;19.13;;
52618;SDS011;38513;53.234;6.568;2022-07-21T02:29:08;25.65;;;18.77;;
52618;SDS011;38513;53.234;6.568;2022-07-21T02:31:34;28.73;;;19.13;;
52618;SDS011;38513;53.234;6.568;2022-07-21T02:34:00;28.60;;;19.42;;
52618;SDS011;38513;53.234;6.568;2022-07-21T02:36:26;31.75;;;20.65;;
52618;SDS011;38513;53.234;6.568;2022-07-21T02:38:52;33.28;;;21.70;;
52618;SDS011;38513;53.234;6.568;2022-07-21T02:41:18;31.20;;;20.65;;
52618;SDS011;38513;53.234;6.568;2022-07-21T02:43:44;29.83;;;19.70;;
52618;SDS011;38513;53.234;6.568;2022-07-21T02:46:10;30.45;;;20.50;;
52618;SDS011;38513;53.234;6.568;2022-07-21T02:48:36;27.67;;;19.70;;
52618;SDS011;38513;53.234;6.568;2022-07-21T02:51:03;29.02;;;19.17;;
52618;SDS011;38513;53.234;6.568;2022-07-21T02:53:29;29.38;;;19.63;;
52618;SDS011;38513;53.234;6.568;2022-07-21T02:55:55;29.23;;;20.88;;
52618;SDS011;38513;53.234;6.568;2022-07-21T02:58:22;32.22;;;21.30;;
52618;SDS011;38513;53.234;6.568;2022-07-21T03:00:54;27.77;;;20.60;;
52618;SDS011;38513;53.234;6.568;2022-07-21T03:03:21;30.67;;;21.02;;
52618;SDS011;38513;53.234;6.568;2022-07-21T03:05:47;25.25;;;19.55;;
52618;SDS011;38513;53.234;6.568;2022-07-21T03:08:14;28.60;;;20.80;;
52618;SDS011;38513;53.234;6.568;2022-07-21T03:10:46;28.23;;;20.13;;
52618;SDS011;38513;53.234;6.568;2022-07-21T03:13:13;28.08;;;21.88;;
52618;SDS011;38513;53.234;6.568;2022-07-21T03:15:39;28.95;;;21.38;;
52618;SDS011;38513;53.234;6.568;2022-07-21T03:18:06;33.22;;;22.77;;
52618;SDS011;38513;53.234;6.568;2022-07-21T03:20:33;30.92;;;22.60;;
52618;SDS011;38513;53.234;6.568;2022-07-21T03:22:59;27.17;;;21.55;;
52618;SDS011;38513;53.234;6.568;2022-07-21T03:25:25;28.88;;;20.05;;
52618;SDS011;38513;53.234;6.568;2022-07-21T03:27:52;26.80;;;20.05;;
52618;SDS011;38513;53.234;6.568;2022-07-21T03:30:18;29.73;;;21.67;;
52618;SDS011;38513;53.234;6.568;2022-07-21T03:32:47;29.60;;;22.00;;
52618;SDS011;38513;53.234;6.568;2022-07-21T03:35:13;32.05;;;24.40;;
52618;SDS011;38513;53.234;6.568;2022-07-21T03:37:43;29.30;;;22.95;;
52618;SDS011;38513;53.234;6.568;2022-07-21T03:40:10;31.98;;;24.48;;
52618;SDS011;38513;53.234;6.568;2022-07-21T03:42:42;30.50;;;23.33;;
52618;SDS011;38513;53.234;6.568;2022-07-21T03:45:09;31.40;;;22.95;;
52618;SDS011;38513;53.234;6.568;2022-07-21T03:47:38;33.58;;;24.15;;
52618;SDS011;38513;53.234;6.568;2022-07-21T03:50:05;29.75;;;23.55;;
52618;SDS011;38513;53.234;6.568;2022-07-21T03:52:31;37.23;;;25.00;;
52618;SDS011;38513;53.234;6.568;2022-07-21T03:54:57;31.95;;;24.63;;
52618;SDS011;38513;53.234;6.568;2022-07-21T03:57:43;35.23;;;24.50;;
52618;SDS011;38513;53.234;6.568;2022-07-21T04:00:16;31.00;;;25.20;;
52618;SDS011;38513;53.234;6.568;2022-07-21T04:02:43;35.28;;;26.25;;
52618;SDS011;38513;53.234;6.568;2022-07-21T04:05:10;34.67;;;25.48;;
52618;SDS011;38513;53.234;6.568;2022-07-21T04:07:39;33.97;;;26.10;;
52618;SDS011;38513;53.234;6.568;2022-07-21T04:10:06;34.35;;;25.02;;
52618;SDS011;38513;53.234;6.568;2022-07-21T04:12:33;30.33;;;24.23;;
52618;SDS011;38513;53.234;6.568;2022-07-21T04:14:59;30.50;;;24.63;;
52618;SDS011;38513;53.234;6.568;2022-07-21T04:17:25;32.42;;;24.75;;
52618;SDS011;38513;53.234;6.568;2022-07-21T04:19:51;34.03;;;24.38;;
52618;SDS011;38513;53.234;6.568;2022-07-21T04:22:17;35.00;;;26.80;;
52618;SDS011;38513;53.234;6.568;2022-07-21T04:24:43;33.78;;;24.30;;
52618;SDS011;38513;53.234;6.568;2022-07-21T04:27:09;33.97;;;25.92;;
52618;SDS011;38513;53.234;6.568;2022-07-21T04:29:35;34.95;;;27.30;;
52618;SDS011;38513;53.234;6.568;2022-07-21T04:32:02;34.50;;;26.20;;
52618;SDS011;38513;53.234;6.568;2022-07-21T04:34:28;35.13;;;26.77;;
52618;SDS011;38513;53.234;6.568;2022-07-21T04:36:54;34.97;;;26.90;;
52618;SDS011;38513;53.234;6.568;2022-07-21T04:39:20;33.97;;;25.73;;
52618;SDS011;38513;53.234;6.568;2022-07-21T04:41:46;32.65;;;25.83;;
52618;SDS011;38513;53.234;6.568;2022-07-21T04:44:12;34.30;;;27.45;;
52618;SDS011;38513;53.234;6.568;2022-07-21T04:46:38;30.85;;;25.33;;
52618;SDS011;38513;53.234;6.568;2022-07-21T04:49:04;33.28;;;27.20;;
52618;SDS011;38513;53.234;6.568;2022-07-21T04:51:31;34.63;;;26.15;;
52618;SDS011;38513;53.234;6.568;2022-07-21T04:53:57;32.55;;;27.10;;
52618;SDS011;38513;53.234;6.568;2022-07-21T04:56:23;33.13;;;27.15;;
52618;SDS011;38513;53.234;6.568;2022-07-21T04:58:49;33.10;;;26.17;;
52618;SDS011;38513;53.234;6.568;2022-07-21T05:01:15;35.80;;;28.80;;
52618;SDS011;38513;53.234;6.568;2022-07-21T05:03:43;37.63;;;28.67;;
52618;SDS011;38513;53.234;6.568;2022-07-21T05:06:09;37.80;;;29.25;;
52618;SDS011;38513;53.234;6.568;2022-07-21T05:08:35;33.03;;;28.60;;
52618;SDS011;38513;53.234;6.568;2022-07-21T05:11:01;37.63;;;30.25;;
52618;SDS011;38513;53.234;6.568;2022-07-21T05:13:28;37.22;;;31.02;;
52618;SDS011;38513;53.234;6.568;2022-07-21T05:15:54;30.85;;;27.50;;
52618;SDS011;38513;53.234;6.568;2022-07-21T05:18:20;34.75;;;29.45;;
52618;SDS011;38513;53.234;6.568;2022-07-21T05:20:46;35.53;;;29.57;;
52618;SDS011;38513;53.234;6.568;2022-07-21T05:23:13;33.58;;;28.20;;
52618;SDS011;38513;53.234;6.568;2022-07-21T05:25:39;32.70;;;27.65;;
52618;SDS011;38513;53.234;6.568;2022-07-21T05:28:05;31.45;;;27.58;;
52618;SDS011;38513;53.234;6.568;2022-07-21T05:30:32;31.23;;;27.83;;
52618;SDS011;38513;53.234;6.568;2022-07-21T05:32:58;35.30;;;28.77;;
52618;SDS011;38513;53.234;6.568;2022-07-21T05:35:24;32.20;;;27.10;;
52618;SDS011;38513;53.234;6.568;2022-07-21T05:37:50;29.58;;;26.02;;
52618;SDS011;38513;53.234;6.568;2022-07-21T05:40:16;32.08;;;27.40;;
52618;SDS011;38513;53.234;6.568;2022-07-21T05:42:42;30.45;;;26.98;;
52618;SDS011;38513;53.234;6.568;2022-07-21T05:45:09;31.15;;;26.88;;
52618;SDS011;38513;53.234;6.568;2022-07-21T05:47:35;29.63;;;26.42;;
52618;SDS011;38513;53.234;6.568;2022-07-21T05:50:02;31.58;;;27.58;;
52618;SDS011;38513;53.234;6.568;2022-07-21T05:52:28;31.38;;;26.67;;
52618;SDS011;38513;53.234;6.568;2022-07-21T05:54:54;29.10;;;24.98;;
52618;SDS011;38513;53.234;6.568;2022-07-21T05:57:20;28.15;;;25.13;;
52618;SDS011;38513;53.234;6.568;2022-07-21T05:59:46;29.55;;;26.45;;
52618;SDS011;38513;53.234;6.568;2022-07-21T06:02:15;31.38;;;27.98;;
52618;SDS011;38513;53.234;6.568;2022-07-21T06:04:42;29.45;;;26.25;;
52618;SDS011;38513;53.234;6.568;2022-07-21T06:07:11;30.55;;;26.30;;
52618;SDS011;38513;53.234;6.568;2022-07-21T06:09:40;28.65;;;25.55;;
52618;SDS011;38513;53.234;6.568;2022-07-21T06:12:06;27.60;;;23.63;;
52618;SDS011;38513;53.234;6.568;2022-07-21T06:14:32;28.77;;;25.40;;
52618;SDS011;38513;53.234;6.568;2022-07-21T06:16:58;30.95;;;26.02;;
52618;SDS011;38513;53.234;6.568;2022-07-21T06:19:25;29.83;;;26.63;;
52618;SDS011;38513;53.234;6.568;2022-07-21T06:21:51;28.80;;;25.73;;
52618;SDS011;38513;53.234;6.568;2022-07-21T06:24:17;28.90;;;24.52;;
52618;SDS011;38513;53.234;6.568;2022-07-21T06:26:47;25.67;;;22.97;;
52618;SDS011;38513;53.234;6.568;2022-07-21T06:29:13;27.23;;;24.35;;
52618;SDS011;38513;53.234;6.568;2022-07-21T06:31:39;27.90;;;24.88;;
52618;SDS011;38513;53.234;6.568;2022-07-21T06:34:05;30.05;;;26.23;;
52618;SDS011;38513;53.234;6.568;2022-07-21T06:36:32;31.42;;;27.08;;
52618;SDS011;38513;53.234;6.568;2022-07-21T06:38:58;30.20;;;26.23;;
52618;SDS011;38513;53.234;6.568;2022-07-21T06:41:24;26.85;;;23.95;;
52618;SDS011;38513;53.234;6.568;2022-07-21T06:43:51;28.60;;;25.63;;
52618;SDS011;38513;53.234;6.568;2022-07-21T06:46:17;28.35;;;24.88;;
52618;SDS011;38513;53.234;6.568;2022-07-21T06:48:43;28.52;;;24.27;;
52618;SDS011;38513;53.234;6.568;2022-07-21T06:51:09;26.25;;;23.55;;
52618;SDS011;38513;53.234;6.568;2022-07-21T06:53:35;27.35;;;24.38;;
52618;SDS011;38513;53.234;6.568;2022-07-21T06:56:01;30.83;;;27.38;;
52618;SDS011;38513;53.234;6.568;2022-07-21T06:58:28;28.35;;;25.20;;
52618;SDS011;38513;53.234;6.568;2022-07-21T07:00:54;28.10;;;25.08;;
52618;SDS011;38513;53.234;6.568;2022-07-21T07:03:20;26.38;;;22.92;;
52618;SDS011;38513;53.234;6.568;2022-07-21T07:05:48;27.23;;;23.50;;
52618;SDS011;38513;53.234;6.568;2022-07-21T07:08:14;27.17;;;24.25;;
52618;SDS011;38513;53.234;6.568;2022-07-21T07:10:40;28.52;;;25.52;;
52618;SDS011;38513;53.234;6.568;2022-07-21T07:13:09;29.23;;;26.08;;
52618;SDS011;38513;53.234;6.568;2022-07-21T07:15:35;28.03;;;25.00;;
52618;SDS011;38513;53.234;6.568;2022-07-21T07:18:02;28.38;;;25.38;;
52618;SDS011;38513;53.234;6.568;2022-07-21T07:20:28;27.90;;;24.85;;
52618;SDS011;38513;53.234;6.568;2022-07-21T07:23:01;29.55;;;26.02;;
52618;SDS011;38513;53.234;6.568;2022-07-21T07:25:27;29.33;;;26.23;;
52618;SDS011;38513;53.234;6.568;2022-07-21T07:27:54;29.00;;;25.85;;
52618;SDS011;38513;53.234;6.568;2022-07-21T07:30:30;30.45;;;27.25;;
52618;SDS011;38513;53.234;6.568;2022-07-21T07:32:56;30.17;;;26.98;;
52618;SDS011;38513;53.234;6.568;2022-07-21T07:35:22;30.27;;;27.05;;
52618;SDS011;38513;53.234;6.568;2022-07-21T07:37:49;31.88;;;28.50;;
52618;SDS011;38513;53.234;6.568;2022-07-21T07:40:17;32.88;;;29.27;;
52618;SDS011;38513;53.234;6.568;2022-07-21T07:42:44;31.20;;;27.85;;
52618;SDS011;38513;53.234;6.568;2022-07-21T07:45:10;31.33;;;28.02;;
52618;SDS011;38513;53.234;6.568;2022-07-21T07:47:37;31.75;;;28.30;;
52618;SDS011;38513;53.234;6.568;2022-07-21T07:50:04;38.20;;;30.08;;
52618;SDS011;38513;53.234;6.568;2022-07-21T07:52:38;32.45;;;28.95;;
52618;SDS011;38513;53.234;6.568;2022-07-21T07:55:11;32.95;;;29.48;;
52618;SDS011;38513;53.234;6.568;2022-07-21T07:57:38;32.40;;;29.10;;
52618;SDS011;38513;53.234;6.568;2022-07-21T08:00:07;31.33;;;28.15;;
52618;SDS011;38513;53.234;6.568;2022-07-21T08:02:34;31.38;;;28.17;;
52618;SDS011;38513;53.234;6.568;2022-07-21T08:05:00;30.75;;;27.67;;
52618;SDS011;38513;53.234;6.568;2022-07-21T08:07:27;29.30;;;26.33;;
52618;SDS011;38513;53.234;6.568;2022-07-21T08:09:53;30.17;;;27.08;;
52618;SDS011;38513;53.234;6.568;2022-07-21T08:12:19;28.95;;;25.98;;
52618;SDS011;38513;53.234;6.568;2022-07-21T08:14:45;30.33;;;27.13;;
52618;SDS011;38513;53.234;6.568;2022-07-21T08:17:12;28.98;;;26.08;;
52618;SDS011;38513;53.234;6.568;2022-07-21T08:19:38;28.58;;;25.70;;
52618;SDS011;38513;53.234;6.568;2022-07-21T08:22:04;28.23;;;25.33;;
52618;SDS011;38513;53.234;6.568;2022-07-21T08:24:30;28.75;;;25.85;;
52618;SDS011;38513;53.234;6.568;2022-07-21T08:26:56;28.27;;;25.27;;
52618;SDS011;38513;53.234;6.568;2022-07-21T08:29:22;26.20;;;23.50;;
52618;SDS011;38513;53.234;6.568;2022-07-21T08:31:49;26.83;;;24.05;;
52618;SDS011;38513;53.234;6.568;2022-07-21T08:34:15;27.70;;;24.95;;
52618;SDS011;38513;53.234;6.568;2022-07-21T08:36:41;29.08;;;25.45;;
52618;SDS011;38513;53.234;6.568;2022-07-21T08:39:19;27.60;;;24.70;;
52618;SDS011;38513;53.234;6.568;2022-07-21T08:41:52;28.75;;;25.75;;
52618;SDS011;38513;53.234;6.568;2022-07-21T08:44:20;27.70;;;24.88;;
52618;SDS011;38513;53.234;6.568;2022-07-21T08:46:48;29.67;;;26.27;;
52618;SDS011;38513;53.234;6.568;2022-07-21T08:49:14;29.60;;;26.55;;
52618;SDS011;38513;53.234;6.568;2022-07-21T08:51:41;29.10;;;26.08;;
52618;SDS011;38513;53.234;6.568;2022-07-21T08:54:07;30.00;;;27.00;;
52618;SDS011;38513;53.234;6.568;2022-07-21T08:56:36;28.75;;;25.63;;
52618;SDS011;38513;53.234;6.568;2022-07-21T08:59:02;29.63;;;26.70;;
52618;SDS011;38513;53.234;6.568;2022-07-21T09:01:30;28.90;;;25.73;;
52618;SDS011;38513;53.234;6.568;2022-07-21T09:04:00;29.60;;;26.52;;
52618;SDS011;38513;53.234;6.568;2022-07-21T09:06:50;29.30;;;26.20;;
52618;SDS011;38513;53.234;6.568;2022-07-21T09:09:22;29.05;;;26.13;;
52618;SDS011;38513;53.234;6.568;2022-07-21T09:11:49;29.83;;;26.80;;
52618;SDS011;38513;53.234;6.568;2022-07-21T09:14:17;30.55;;;27.27;;
52618;SDS011;38513;53.234;6.568;2022-07-21T09:19:17;30.38;;;27.17;;
52618;SDS011;38513;53.234;6.568;2022-07-21T09:21:44;31.60;;;28.42;;
52618;SDS011;38513;53.234;6.568;2022-07-21T09:24:14;31.25;;;28.13;;
52618;SDS011;38513;53.234;6.568;2022-07-21T09:29:27;34.05;;;30.55;;
52618;SDS011;38513;53.234;6.568;2022-07-21T09:31:58;33.97;;;30.40;;
52618;SDS011;38513;53.234;6.568;2022-07-21T09:34:37;34.53;;;30.83;;
52618;SDS011;38513;53.234;6.568;2022-07-21T09:37:04;35.53;;;31.92;;
52618;SDS011;38513;53.234;6.568;2022-07-21T09:39:40;37.13;;;33.22;;
52618;SDS011;38513;53.234;6.568;2022-07-21T09:44:43;35.55;;;31.95;;
52618;SDS011;38513;53.234;6.568;2022-07-21T09:47:13;36.15;;;32.42;;
52618;SDS011;38513;53.234;6.568;2022-07-21T09:49:41;36.08;;;32.30;;
52618;SDS011;38513;53.234;6.568;2022-07-21T09:52:50;34.83;;;31.30;;
52618;SDS011;38513;53.234;6.568;2022-07-21T09:54:58;35.63;;;32.08;;
52618;SDS011;38513;53.234;6.568;2022-07-21T09:57:25;37.45;;;33.58;;
52618;SDS011;38513;53.234;6.568;2022-07-21T09:59:51;37.88;;;34.15;;
52618;SDS011;38513;53.234;6.568;2022-07-21T10:02:19;37.88;;;34.05;;
52618;SDS011;38513;53.234;6.568;2022-07-21T10:04:52;38.30;;;34.45;;
52618;SDS011;38513;53.234;6.568;2022-07-21T10:07:20;37.80;;;34.00;;
52618;SDS011;38513;53.234;6.568;2022-07-21T10:09:47;37.75;;;33.92;;
52618;SDS011;38513;53.234;6.568;2022-07-21T10:12:14;37.35;;;33.75;;
52618;SDS011;38513;53.234;6.568;2022-07-21T10:14:43;38.22;;;34.35;;
52618;SDS011;38513;53.234;6.568;2022-07-21T10:17:11;38.78;;;34.97;;
52618;SDS011;38513;53.234;6.568;2022-07-21T10:19:57;37.85;;;34.13;;
52618;SDS011;38513;53.234;6.568;2022-07-21T10:24:56;40.90;;;36.80;;
52618;SDS011;38513;53.234;6.568;2022-07-21T10:27:26;40.17;;;36.25;;
52618;SDS011;38513;53.234;6.568;2022-07-21T10:32:48;40.42;;;36.33;;
52618;SDS011;38513;53.234;6.568;2022-07-21T10:35:25;43.28;;;38.78;;
52618;SDS011;38513;53.234;6.568;2022-07-21T10:37:52;40.03;;;35.97;;
52618;SDS011;38513;53.234;6.568;2022-07-21T10:42:44;41.42;;;37.17;;
52618;SDS011;38513;53.234;6.568;2022-07-21T10:47:55;38.72;;;34.85;;
52618;SDS011;38513;53.234;6.568;2022-07-21T10:50:29;36.15;;;32.45;;
52618;SDS011;38513;53.234;6.568;2022-07-21T10:52:55;35.22;;;31.70;;
52618;SDS011;38513;53.234;6.568;2022-07-21T10:55:22;38.38;;;34.38;;
52618;SDS011;38513;53.234;6.568;2022-07-21T11:00:42;34.60;;;31.05;;
52618;SDS011;38513;53.234;6.568;2022-07-21T11:03:13;35.58;;;31.77;;
52618;SDS011;38513;53.234;6.568;2022-07-21T11:11:06;34.08;;;30.58;;
52618;SDS011;38513;53.234;6.568;2022-07-21T11:22:02;26.25;;;23.55;;
52618;SDS011;38513;53.234;6.568;2022-07-21T11:24:29;27.85;;;24.95;;
52618;SDS011;38513;53.234;6.568;2022-07-21T11:27:03;31.33;;;28.23;;
52618;SDS011;38513;53.234;6.568;2022-07-21T11:29:30;29.40;;;26.30;;
52618;SDS011;38513;53.234;6.568;2022-07-21T11:31:56;28.58;;;25.70;;
52618;SDS011;38513;53.234;6.568;2022-07-21T11:34:24;30.08;;;27.08;;
52618;SDS011;38513;53.234;6.568;2022-07-21T11:37:01;27.77;;;24.88;;
52618;SDS011;38513;53.234;6.568;2022-07-21T11:39:27;29.55;;;26.50;;
52618;SDS011;38513;53.234;6.568;2022-07-21T11:41:53;25.65;;;23.08;;
52618;SDS011;38513;53.234;6.568;2022-07-21T11:44:23;26.77;;;23.98;;
52618;SDS011;38513;53.234;6.568;2022-07-21T11:46:51;25.10;;;22.30;;
52618;SDS011;38513;53.234;6.568;2022-07-21T11:49:18;24.38;;;21.85;;
52618;SDS011;38513;53.234;6.568;2022-07-21T11:51:48;20.45;;;18.25;;
52618;SDS011;38513;53.234;6.568;2022-07-21T11:54:31;18.00;;;16.08;;
52618;SDS011;38513;53.234;6.568;2022-07-21T11:56:58;19.60;;;17.17;;
52618;SDS011;38513;53.234;6.568;2022-07-21T11:59:25;19.02;;;17.05;;
52618;SDS011;38513;53.234;6.568;2022-07-21T12:02:02;17.55;;;14.73;;
52618;SDS011;38513;53.234;6.568;2022-07-21T12:04:29;16.52;;;14.73;;
52618;SDS011;38513;53.234;6.568;2022-07-21T12:06:55;17.00;;;13.30;;
52618;SDS011;38513;53.234;6.568;2022-07-21T12:09:22;10.70;;;9.60;;
52618;SDS011;38513;53.234;6.568;2022-07-21T12:11:48;14.30;;;12.82;;
52618;SDS011;38513;53.234;6.568;2022-07-21T12:14:14;14.18;;;12.60;;
52618;SDS011;38513;53.234;6.568;2022-07-21T12:16:51;14.60;;;13.13;;
52618;SDS011;38513;53.234;6.568;2022-07-21T12:19:18;14.52;;;13.02;;
52618;SDS011;38513;53.234;6.568;2022-07-21T12:21:48;14.60;;;12.95;;
52618;SDS011;38513;53.234;6.568;2022-07-21T12:24:16;11.73;;;10.38;;
52618;SDS011;38513;53.234;6.568;2022-07-21T12:26:42;10.95;;;9.68;;
52618;SDS011;38513;53.234;6.568;2022-07-21T12:29:09;11.32;;;9.90;;
52618;SDS011;38513;53.234;6.568;2022-07-21T12:31:35;13.23;;;11.00;;
52618;SDS011;38513;53.234;6.568;2022-07-21T12:34:14;13.10;;;10.87;;
52618;SDS011;38513;53.234;6.568;2022-07-21T12:36:43;14.50;;;13.00;;
52618;SDS011;38513;53.234;6.568;2022-07-21T12:42:00;15.20;;;13.67;;
52618;SDS011;38513;53.234;6.568;2022-07-21T12:44:27;16.38;;;14.68;;
52618;SDS011;38513;53.234;6.568;2022-07-21T12:46:55;14.15;;;12.60;;
52618;SDS011;38513;53.234;6.568;2022-07-21T12:49:21;16.90;;;15.20;;
52618;SDS011;38513;53.234;6.568;2022-07-21T12:51:56;17.10;;;15.27;;
52618;SDS011;38513;53.234;6.568;2022-07-21T12:54:22;15.95;;;14.35;;
52618;SDS011;38513;53.234;6.568;2022-07-21T12:56:49;16.20;;;14.40;;
52618;SDS011;38513;53.234;6.568;2022-07-21T12:59:18;12.90;;;11.48;;
52618;SDS011;38513;53.234;6.568;2022-07-21T13:01:44;14.33;;;11.60;;
52618;SDS011;38513;53.234;6.568;2022-07-21T13:04:13;15.13;;;11.00;;
52618;SDS011;38513;53.234;6.568;2022-07-21T13:06:42;12.77;;;9.45;;
52618;SDS011;38513;53.234;6.568;2022-07-21T13:09:11;12.43;;;8.88;;
52618;SDS011;38513;53.234;6.568;2022-07-21T13:11:37;11.57;;;9.10;;
52618;SDS011;38513;53.234;6.568;2022-07-21T13:14:03;12.10;;;8.05;;
52618;SDS011;38513;53.234;6.568;2022-07-21T13:16:30;10.85;;;7.80;;
52618;SDS011;38513;53.234;6.568;2022-07-21T13:18:59;10.75;;;7.15;;
52618;SDS011;38513;53.234;6.568;2022-07-21T13:21:25;8.93;;;6.63;;
52618;SDS011;38513;53.234;6.568;2022-07-21T13:23:51;10.82;;;6.93;;
52618;SDS011;38513;53.234;6.568;2022-07-21T13:26:17;9.60;;;6.57;;
52618;SDS011;38513;53.234;6.568;2022-07-21T13:28:43;10.40;;;6.25;;
52618;SDS011;38513;53.234;6.568;2022-07-21T13:31:10;8.68;;;5.90;;
52618;SDS011;38513;53.234;6.568;2022-07-21T13:33:37;8.67;;;5.53;;
52618;SDS011;38513;53.234;6.568;2022-07-21T13:36:04;9.32;;;5.43;;
52618;SDS011;38513;53.234;6.568;2022-07-21T13:38:39;9.10;;;5.15;;
52618;SDS011;38513;53.234;6.568;2022-07-21T13:41:05;8.82;;;5.25;;
52618;SDS011;38513;53.234;6.568;2022-07-21T13:43:35;7.97;;;5.15;;
52618;SDS011;38513;53.234;6.568;2022-07-21T13:46:01;7.60;;;5.03;;
52618;SDS011;38513;53.234;6.568;2022-07-21T13:48:28;8.18;;;4.88;;
52618;SDS011;38513;53.234;6.568;2022-07-21T13:50:54;8.38;;;5.28;;
52618;SDS011;38513;53.234;6.568;2022-07-21T13:53:20;9.00;;;5.85;;
52618;SDS011;38513;53.234;6.568;2022-07-21T13:55:46;8.13;;;4.85;;
52618;SDS011;38513;53.234;6.568;2022-07-21T13:58:12;7.63;;;5.13;;
52618;SDS011;38513;53.234;6.568;2022-07-21T14:00:38;8.25;;;5.38;;
52618;SDS011;38513;53.234;6.568;2022-07-21T14:03:05;7.67;;;5.23;;
52618;SDS011;38513;53.234;6.568;2022-07-21T14:05:31;8.25;;;5.38;;
52618;SDS011;38513;53.234;6.568;2022-07-21T14:07:57;9.75;;;6.18;;
52618;SDS011;38513;53.234;6.568;2022-07-21T14:10:23;9.45;;;5.80;;
52618;SDS011;38513;53.234;6.568;2022-07-21T14:12:49;8.88;;;5.25;;
52618;SDS011;38513;53.234;6.568;2022-07-21T14:15:15;7.68;;;5.18;;
52618;SDS011;38513;53.234;6.568;2022-07-21T14:17:48;9.05;;;5.50;;
52618;SDS011;38513;53.234;6.568;2022-07-21T14:20:14;8.93;;;5.07;;
52618;SDS011;38513;53.234;6.568;2022-07-21T14:22:41;8.73;;;5.70;;
52618;SDS011;38513;53.234;6.568;2022-07-21T14:25:07;8.40;;;5.43;;
52618;SDS011;38513;53.234;6.568;2022-07-21T14:27:46;8.95;;;5.78;;
52618;SDS011;38513;53.234;6.568;2022-07-21T14:30:13;9.38;;;6.28;;
52618;SDS011;38513;53.234;6.568;2022-07-21T14:32:39;9.80;;;6.03;;
52618;SDS011;38513;53.234;6.568;2022-07-21T14:35:05;9.52;;;6.00;;
52618;SDS011;38513;53.234;6.568;2022-07-21T14:37:31;8.93;;;6.25;;
52618;SDS011;38513;53.234;6.568;2022-07-21T14:39:58;9.23;;;6.15;;
52618;SDS011;38513;53.234;6.568;2022-07-21T14:42:24;8.57;;;5.65;;
52618;SDS011;38513;53.234;6.568;2022-07-21T14:44:50;8.25;;;5.70;;
52618;SDS011;38513;53.234;6.568;2022-07-21T14:47:16;8.68;;;5.40;;
52618;SDS011;38513;53.234;6.568;2022-07-21T14:49:42;8.10;;;5.20;;
52618;SDS011;38513;53.234;6.568;2022-07-21T14:52:08;7.13;;;4.90;;
52618;SDS011;38513;53.234;6.568;2022-07-21T14:54:35;7.80;;;5.60;;
52618;SDS011;38513;53.234;6.568;2022-07-21T14:57:02;8.50;;;5.65;;
52618;SDS011;38513;53.234;6.568;2022-07-21T14:59:29;10.30;;;6.05;;
52618;SDS011;38513;53.234;6.568;2022-07-21T15:01:56;9.50;;;6.00;;
52618;SDS011;38513;53.234;6.568;2022-07-21T15:04:22;8.20;;;6.18;;
52618;SDS011;38513;53.234;6.568;2022-07-21T15:06:48;8.98;;;6.50;;